< < Back
Terminal Aerodrome Forecast


Current Version              Previous Versions:   1  2  3  4  5  6  7  8  9  

Terminal Aerodrome Forecast

085
FTUS42 KMLB 182300
TAFMCO
TAF
KMCO 182339Z 1900/1924 31006KT P6SM BKN250
     FM190100 34002KT P6SM BKN250
     FM191400 01004KT P6SM BKN250
     FM191600 04006KT P6SM BKN250=

Latest METAR

727
SAUS70 KWBC 190000 RRC
MTRMCO
METAR KMCO 182353Z 00000KT 10SM SCT230 16/08 A3012 RMK AO2 SLP198
T01610078 10217 20156 50007


USA.gov is the U.S. government's official web portal to all federal, state and local government web resources and services.